sensor_id;sensor_type;location;lat;lon;timestamp;temperature;humidity
69747;DHT22;57018;50.278;19.134;2024-03-08T00:00:00;1.40;99.90
69747;DHT22;57018;50.278;19.134;2024-03-08T00:02:38;1.30;99.90
69747;DHT22;57018;50.278;19.134;2024-03-08T00:05:09;1.30;99.90
69747;DHT22;57018;50.278;19.134;2024-03-08T00:07:40;1.00;99.90
69747;DHT22;57018;50.278;19.134;2024-03-08T00:10:11;1.20;99.90
69747;DHT22;57018;50.278;19.134;2024-03-08T00:12:45;1.10;99.90
69747;DHT22;57018;50.278;19.134;2024-03-08T00:15:17;1.10;99.90
69747;DHT22;57018;50.278;19.134;2024-03-08T00:17:47;1.10;99.90
69747;DHT22;57018;50.278;19.134;2024-03-08T00:20:17;1.20;99.90
69747;DHT22;57018;50.278;19.134;2024-03-08T00:22:47;1.30;99.90
69747;DHT22;57018;50.278;19.134;2024-03-08T00:25:17;1.20;99.90
69747;DHT22;57018;50.278;19.134;2024-03-08T00:27:47;1.20;99.90
69747;DHT22;57018;50.278;19.134;2024-03-08T00:30:18;1.10;99.90
69747;DHT22;57018;50.278;19.134;2024-03-08T00:32:48;1.20;99.90
69747;DHT22;57018;50.278;19.134;2024-03-08T00:35:18;1.20;99.90
69747;DHT22;57018;50.278;19.134;2024-03-08T00:37:47;1.00;99.90
69747;DHT22;57018;50.278;19.134;2024-03-08T00:40:17;1.10;99.90
69747;DHT22;57018;50.278;19.134;2024-03-08T00:42:47;1.20;99.90
69747;DHT22;57018;50.278;19.134;2024-03-08T00:45:17;1.10;99.90
69747;DHT22;57018;50.278;19.134;2024-03-08T00:47:47;1.10;99.90
69747;DHT22;57018;50.278;19.134;2024-03-08T00:50:17;1.00;99.90
69747;DHT22;57018;50.278;19.134;2024-03-08T00:52:47;1.00;99.90
69747;DHT22;57018;50.278;19.134;2024-03-08T00:55:18;1.10;99.90
69747;DHT22;57018;50.278;19.134;2024-03-08T00:57:48;1.10;99.90
69747;DHT22;57018;50.278;19.134;2024-03-08T01:00:20;1.10;99.90
69747;DHT22;57018;50.278;19.134;2024-03-08T01:02:50;1.10;99.90
69747;DHT22;57018;50.278;19.134;2024-03-08T01:05:20;1.20;99.90
69747;DHT22;57018;50.278;19.134;2024-03-08T01:07:52;1.10;99.90
69747;DHT22;57018;50.278;19.134;2024-03-08T01:10:22;1.10;99.90
69747;DHT22;57018;50.278;19.134;2024-03-08T01:12:51;1.10;99.90
69747;DHT22;57018;50.278;19.134;2024-03-08T01:15:23;0.90;99.90
69747;DHT22;57018;50.278;19.134;2024-03-08T01:17:55;1.10;99.90
69747;DHT22;57018;50.278;19.134;2024-03-08T01:20:25;1.00;99.90
69747;DHT22;57018;50.278;19.134;2024-03-08T01:22:55;0.90;99.90
69747;DHT22;57018;50.278;19.134;2024-03-08T01:25:25;1.00;99.90
69747;DHT22;57018;50.278;19.134;2024-03-08T01:27:55;1.10;99.90
69747;DHT22;57018;50.278;19.134;2024-03-08T01:30:25;1.00;99.90
69747;DHT22;57018;50.278;19.134;2024-03-08T01:32:55;0.90;99.90
69747;DHT22;57018;50.278;19.134;2024-03-08T01:35:25;1.00;99.90
69747;DHT22;57018;50.278;19.134;2024-03-08T01:37:57;0.90;99.90
69747;DHT22;57018;50.278;19.134;2024-03-08T01:40:27;1.00;99.90
69747;DHT22;57018;50.278;19.134;2024-03-08T01:42:57;1.00;99.90
69747;DHT22;57018;50.278;19.134;2024-03-08T01:45:44;1.10;99.90
69747;DHT22;57018;50.278;19.134;2024-03-08T01:48:15;1.10;99.90
69747;DHT22;57018;50.278;19.134;2024-03-08T01:50:46;1.10;99.90
69747;DHT22;57018;50.278;19.134;2024-03-08T01:53:19;1.00;99.90
69747;DHT22;57018;50.278;19.134;2024-03-08T01:55:50;0.90;99.90
69747;DHT22;57018;50.278;19.134;2024-03-08T01:58:25;1.00;99.90
69747;DHT22;57018;50.278;19.134;2024-03-08T02:00:57;0.90;99.90
69747;DHT22;57018;50.278;19.134;2024-03-08T02:03:30;0.90;99.90
69747;DHT22;57018;50.278;19.134;2024-03-08T02:06:00;0.80;99.90
69747;DHT22;57018;50.278;19.134;2024-03-08T02:08:30;0.80;99.90
69747;DHT22;57018;50.278;19.134;2024-03-08T02:11:00;0.80;99.90
69747;DHT22;57018;50.278;19.134;2024-03-08T02:13:30;0.80;99.90
69747;DHT22;57018;50.278;19.134;2024-03-08T02:16:01;0.80;99.90
69747;DHT22;57018;50.278;19.134;2024-03-08T02:18:32;0.90;99.90
69747;DHT22;57018;50.278;19.134;2024-03-08T02:21:04;0.80;99.90
69747;DHT22;57018;50.278;19.134;2024-03-08T02:23:36;0.90;99.90
69747;DHT22;57018;50.278;19.134;2024-03-08T02:26:06;0.80;99.90
69747;DHT22;57018;50.278;19.134;2024-03-08T02:28:37;0.90;99.90
69747;DHT22;57018;50.278;19.134;2024-03-08T02:31:07;0.90;99.90
69747;DHT22;57018;50.278;19.134;2024-03-08T02:33:37;1.00;99.90
69747;DHT22;57018;50.278;19.134;2024-03-08T02:36:08;1.00;99.90
69747;DHT22;57018;50.278;19.134;2024-03-08T02:38:38;0.80;99.90
69747;DHT22;57018;50.278;19.134;2024-03-08T02:41:09;0.90;99.90
69747;DHT22;57018;50.278;19.134;2024-03-08T02:43:39;1.00;99.90
69747;DHT22;57018;50.278;19.134;2024-03-08T02:46:09;1.00;99.90
69747;DHT22;57018;50.278;19.134;2024-03-08T02:48:39;1.00;99.90
69747;DHT22;57018;50.278;19.134;2024-03-08T02:51:09;1.00;99.90
69747;DHT22;57018;50.278;19.134;2024-03-08T02:53:40;1.10;99.90
69747;DHT22;57018;50.278;19.134;2024-03-08T02:56:11;1.20;99.90
69747;DHT22;57018;50.278;19.134;2024-03-08T02:58:45;1.30;99.90
69747;DHT22;57018;50.278;19.134;2024-03-08T03:01:17;1.20;99.90
69747;DHT22;57018;50.278;19.134;2024-03-08T03:03:48;1.20;99.90
69747;DHT22;57018;50.278;19.134;2024-03-08T03:06:18;1.00;99.90
69747;DHT22;57018;50.278;19.134;2024-03-08T03:08:49;1.20;99.90
69747;DHT22;57018;50.278;19.134;2024-03-08T03:11:19;1.00;99.90
69747;DHT22;57018;50.278;19.134;2024-03-08T03:13:50;1.10;99.90
69747;DHT22;57018;50.278;19.134;2024-03-08T03:16:21;1.00;99.90
69747;DHT22;57018;50.278;19.134;2024-03-08T03:18:51;1.10;99.90
69747;DHT22;57018;50.278;19.134;2024-03-08T03:21:21;0.90;99.90
69747;DHT22;57018;50.278;19.134;2024-03-08T03:23:50;1.10;99.90
69747;DHT22;57018;50.278;19.134;2024-03-08T03:26:21;1.00;99.90
69747;DHT22;57018;50.278;19.134;2024-03-08T03:28:51;1.00;99.90
69747;DHT22;57018;50.278;19.134;2024-03-08T03:31:22;1.10;99.90
69747;DHT22;57018;50.278;19.134;2024-03-08T03:33:53;1.20;99.90
69747;DHT22;57018;50.278;19.134;2024-03-08T03:36:29;1.30;99.90
69747;DHT22;57018;50.278;19.134;2024-03-08T03:38:59;1.10;99.90
69747;DHT22;57018;50.278;19.134;2024-03-08T03:41:39;1.30;99.90
69747;DHT22;57018;50.278;19.134;2024-03-08T03:44:09;1.30;99.90
69747;DHT22;57018;50.278;19.134;2024-03-08T03:46:38;1.10;99.90
69747;DHT22;57018;50.278;19.134;2024-03-08T03:49:12;1.20;99.90
69747;DHT22;57018;50.278;19.134;2024-03-08T03:51:42;1.20;99.90
69747;DHT22;57018;50.278;19.134;2024-03-08T03:54:13;1.30;99.90
69747;DHT22;57018;50.278;19.134;2024-03-08T03:56:42;1.10;99.90
69747;DHT22;57018;50.278;19.134;2024-03-08T03:59:13;1.10;99.90
69747;DHT22;57018;50.278;19.134;2024-03-08T04:01:44;1.00;99.90
69747;DHT22;57018;50.278;19.134;2024-03-08T04:04:14;1.00;99.90
69747;DHT22;57018;50.278;19.134;2024-03-08T04:06:44;1.00;99.90
69747;DHT22;57018;50.278;19.134;2024-03-08T04:09:14;1.20;99.90
69747;DHT22;57018;50.278;19.134;2024-03-08T04:11:44;1.10;99.90
69747;DHT22;57018;50.278;19.134;2024-03-08T04:14:14;1.00;99.90
69747;DHT22;57018;50.278;19.134;2024-03-08T04:16:44;1.10;99.90
69747;DHT22;57018;50.278;19.134;2024-03-08T04:19:15;0.90;99.90
69747;DHT22;57018;50.278;19.134;2024-03-08T04:21:44;1.10;99.90
69747;DHT22;57018;50.278;19.134;2024-03-08T04:24:15;1.10;99.90
69747;DHT22;57018;50.278;19.134;2024-03-08T04:26:47;1.20;99.90
69747;DHT22;57018;50.278;19.134;2024-03-08T04:29:17;1.40;99.90
69747;DHT22;57018;50.278;19.134;2024-03-08T04:31:46;1.50;99.90
69747;DHT22;57018;50.278;19.134;2024-03-08T04:34:16;1.50;99.90
69747;DHT22;57018;50.278;19.134;2024-03-08T04:36:46;1.50;99.90
69747;DHT22;57018;50.278;19.134;2024-03-08T04:39:16;1.60;99.90
69747;DHT22;57018;50.278;19.134;2024-03-08T04:41:47;1.60;99.90
69747;DHT22;57018;50.278;19.134;2024-03-08T04:44:17;1.60;99.90
69747;DHT22;57018;50.278;19.134;2024-03-08T04:46:47;1.90;99.90
69747;DHT22;57018;50.278;19.134;2024-03-08T04:49:18;1.80;99.90
69747;DHT22;57018;50.278;19.134;2024-03-08T04:51:50;1.80;99.90
69747;DHT22;57018;50.278;19.134;2024-03-08T04:54:20;1.80;99.90
69747;DHT22;57018;50.278;19.134;2024-03-08T04:56:50;1.80;99.90
69747;DHT22;57018;50.278;19.134;2024-03-08T04:59:19;2.10;99.90
69747;DHT22;57018;50.278;19.134;2024-03-08T05:01:49;2.10;99.90
69747;DHT22;57018;50.278;19.134;2024-03-08T05:04:19;2.20;99.90
69747;DHT22;57018;50.278;19.134;2024-03-08T05:06:49;2.20;99.90
69747;DHT22;57018;50.278;19.134;2024-03-08T05:09:19;2.20;99.90
69747;DHT22;57018;50.278;19.134;2024-03-08T05:11:49;2.10;99.90
69747;DHT22;57018;50.278;19.134;2024-03-08T05:14:19;2.20;99.90
69747;DHT22;57018;50.278;19.134;2024-03-08T05:16:49;2.20;99.90
69747;DHT22;57018;50.278;19.134;2024-03-08T05:19:20;2.40;99.90
69747;DHT22;57018;50.278;19.134;2024-03-08T05:21:51;2.40;99.90
69747;DHT22;57018;50.278;19.134;2024-03-08T05:24:21;2.30;99.90
69747;DHT22;57018;50.278;19.134;2024-03-08T05:26:51;2.40;99.90
69747;DHT22;57018;50.278;19.134;2024-03-08T05:29:20;2.40;99.90
69747;DHT22;57018;50.278;19.134;2024-03-08T05:31:52;2.40;99.90
69747;DHT22;57018;50.278;19.134;2024-03-08T05:34:25;2.40;99.90
69747;DHT22;57018;50.278;19.134;2024-03-08T05:36:57;2.20;99.90
69747;DHT22;57018;50.278;19.134;2024-03-08T05:39:28;2.40;99.90
69747;DHT22;57018;50.278;19.134;2024-03-08T05:41:58;2.30;99.90
69747;DHT22;57018;50.278;19.134;2024-03-08T05:44:28;2.50;99.90
69747;DHT22;57018;50.278;19.134;2024-03-08T05:46:59;2.40;99.90
69747;DHT22;57018;50.278;19.134;2024-03-08T05:49:29;2.40;99.90
69747;DHT22;57018;50.278;19.134;2024-03-08T05:51:59;2.30;99.90
69747;DHT22;57018;50.278;19.134;2024-03-08T05:54:33;2.20;99.90
69747;DHT22;57018;50.278;19.134;2024-03-08T05:57:03;2.30;99.90
69747;DHT22;57018;50.278;19.134;2024-03-08T05:59:35;2.30;99.90
69747;DHT22;57018;50.278;19.134;2024-03-08T06:02:06;2.20;99.90
69747;DHT22;57018;50.278;19.134;2024-03-08T06:04:36;2.20;99.90
69747;DHT22;57018;50.278;19.134;2024-03-08T06:07:06;2.40;99.90
69747;DHT22;57018;50.278;19.134;2024-03-08T06:09:40;2.30;99.90
69747;DHT22;57018;50.278;19.134;2024-03-08T06:12:13;2.40;99.90
69747;DHT22;57018;50.278;19.134;2024-03-08T06:14:47;2.50;99.90
69747;DHT22;57018;50.278;19.134;2024-03-08T06:17:17;2.20;99.90
69747;DHT22;57018;50.278;19.134;2024-03-08T06:19:48;2.30;99.90
69747;DHT22;57018;50.278;19.134;2024-03-08T06:22:19;2.30;99.90
69747;DHT22;57018;50.278;19.134;2024-03-08T06:24:49;2.20;99.90
69747;DHT22;57018;50.278;19.134;2024-03-08T06:27:20;2.30;99.90
69747;DHT22;57018;50.278;19.134;2024-03-08T06:29:50;2.40;99.90
69747;DHT22;57018;50.278;19.134;2024-03-08T06:32:19;2.20;99.90
69747;DHT22;57018;50.278;19.134;2024-03-08T06:34:49;2.40;99.90
69747;DHT22;57018;50.278;19.134;2024-03-08T06:37:19;2.50;99.90
69747;DHT22;57018;50.278;19.134;2024-03-08T06:39:50;2.30;99.90
69747;DHT22;57018;50.278;19.134;2024-03-08T06:42:22;2.40;99.90
69747;DHT22;57018;50.278;19.134;2024-03-08T06:44:54;2.30;99.90
69747;DHT22;57018;50.278;19.134;2024-03-08T06:47:30;2.20;99.90
69747;DHT22;57018;50.278;19.134;2024-03-08T06:50:04;2.60;99.90
69747;DHT22;57018;50.278;19.134;2024-03-08T06:52:35;2.60;99.90
69747;DHT22;57018;50.278;19.134;2024-03-08T06:55:06;2.60;99.90
69747;DHT22;57018;50.278;19.134;2024-03-08T06:57:37;2.50;99.90
69747;DHT22;57018;50.278;19.134;2024-03-08T07:00:09;2.70;99.90
69747;DHT22;57018;50.278;19.134;2024-03-08T07:02:43;2.90;99.90
69747;DHT22;57018;50.278;19.134;2024-03-08T07:05:14;2.90;99.90
69747;DHT22;57018;50.278;19.134;2024-03-08T07:07:46;2.90;99.90
69747;DHT22;57018;50.278;19.134;2024-03-08T07:10:17;2.90;99.90
69747;DHT22;57018;50.278;19.134;2024-03-08T07:12:48;2.90;99.90
69747;DHT22;57018;50.278;19.134;2024-03-08T07:15:19;3.10;99.90
69747;DHT22;57018;50.278;19.134;2024-03-08T07:17:49;3.10;99.90
69747;DHT22;57018;50.278;19.134;2024-03-08T07:20:21;3.00;99.90
69747;DHT22;57018;50.278;19.134;2024-03-08T07:22:50;2.90;99.90
69747;DHT22;57018;50.278;19.134;2024-03-08T07:25:21;3.30;99.90
69747;DHT22;57018;50.278;19.134;2024-03-08T07:27:53;2.90;99.90
69747;DHT22;57018;50.278;19.134;2024-03-08T07:30:25;2.80;99.90
69747;DHT22;57018;50.278;19.134;2024-03-08T07:33:13;2.90;99.90
69747;DHT22;57018;50.278;19.134;2024-03-08T07:35:43;2.70;99.90
69747;DHT22;57018;50.278;19.134;2024-03-08T07:38:13;3.10;99.90
69747;DHT22;57018;50.278;19.134;2024-03-08T07:40:47;3.10;99.90
69747;DHT22;57018;50.278;19.134;2024-03-08T07:43:17;3.30;99.90
69747;DHT22;57018;50.278;19.134;2024-03-08T07:45:46;3.40;99.90
69747;DHT22;57018;50.278;19.134;2024-03-08T07:48:16;3.50;99.90
69747;DHT22;57018;50.278;19.134;2024-03-08T07:50:46;3.60;99.90
69747;DHT22;57018;50.278;19.134;2024-03-08T07:53:17;3.70;99.90
69747;DHT22;57018;50.278;19.134;2024-03-08T07:55:49;3.90;99.90
69747;DHT22;57018;50.278;19.134;2024-03-08T07:58:19;3.80;99.90
69747;DHT22;57018;50.278;19.134;2024-03-08T08:00:49;3.70;99.90
69747;DHT22;57018;50.278;19.134;2024-03-08T08:03:18;3.80;99.90
69747;DHT22;57018;50.278;19.134;2024-03-08T08:05:49;3.90;99.90
69747;DHT22;57018;50.278;19.134;2024-03-08T08:08:19;3.50;99.90
69747;DHT22;57018;50.278;19.134;2024-03-08T08:10:49;3.60;99.90
69747;DHT22;57018;50.278;19.134;2024-03-08T08:13:19;3.40;99.90
69747;DHT22;57018;50.278;19.134;2024-03-08T08:15:52;3.40;99.90
69747;DHT22;57018;50.278;19.134;2024-03-08T08:18:24;3.30;99.90
69747;DHT22;57018;50.278;19.134;2024-03-08T08:20:54;3.40;99.90
69747;DHT22;57018;50.278;19.134;2024-03-08T08:23:24;3.60;99.90
69747;DHT22;57018;50.278;19.134;2024-03-08T08:25:54;3.50;99.90
69747;DHT22;57018;50.278;19.134;2024-03-08T08:28:24;3.60;99.90
69747;DHT22;57018;50.278;19.134;2024-03-08T08:30:54;3.60;99.90
69747;DHT22;57018;50.278;19.134;2024-03-08T08:33:24;3.90;99.90
69747;DHT22;57018;50.278;19.134;2024-03-08T08:35:54;3.90;99.90
69747;DHT22;57018;50.278;19.134;2024-03-08T08:38:24;3.80;98.60
69747;DHT22;57018;50.278;19.134;2024-03-08T08:40:55;4.10;98.90
69747;DHT22;57018;50.278;19.134;2024-03-08T08:43:24;3.90;98.60
69747;DHT22;57018;50.278;19.134;2024-03-08T08:45:55;4.00;98.40
69747;DHT22;57018;50.278;19.134;2024-03-08T08:48:27;4.20;98.00
69747;DHT22;57018;50.278;19.134;2024-03-08T08:50:58;4.20;96.90
69747;DHT22;57018;50.278;19.134;2024-03-08T08:53:29;4.40;95.10
69747;DHT22;57018;50.278;19.134;2024-03-08T08:55:59;4.60;93.40
69747;DHT22;57018;50.278;19.134;2024-03-08T08:58:30;4.70;93.60
69747;DHT22;57018;50.278;19.134;2024-03-08T09:01:00;4.90;89.30
69747;DHT22;57018;50.278;19.134;2024-03-08T09:03:32;5.00;88.80
69747;DHT22;57018;50.278;19.134;2024-03-08T09:06:03;4.90;88.40
69747;DHT22;57018;50.278;19.134;2024-03-08T09:08:34;5.00;88.30
69747;DHT22;57018;50.278;19.134;2024-03-08T09:11:04;5.20;86.70
69747;DHT22;57018;50.278;19.134;2024-03-08T09:13:33;5.10;85.80
69747;DHT22;57018;50.278;19.134;2024-03-08T09:16:05;5.30;85.50
69747;DHT22;57018;50.278;19.134;2024-03-08T09:18:37;5.10;84.50
69747;DHT22;57018;50.278;19.134;2024-03-08T09:21:07;5.20;85.10
69747;DHT22;57018;50.278;19.134;2024-03-08T09:23:38;5.30;85.30
69747;DHT22;57018;50.278;19.134;2024-03-08T09:26:10;5.20;86.00
69747;DHT22;57018;50.278;19.134;2024-03-08T09:28:41;5.30;86.20
69747;DHT22;57018;50.278;19.134;2024-03-08T09:31:11;5.60;85.00
69747;DHT22;57018;50.278;19.134;2024-03-08T09:33:40;5.80;83.00
69747;DHT22;57018;50.278;19.134;2024-03-08T09:36:11;5.90;81.80
69747;DHT22;57018;50.278;19.134;2024-03-08T09:38:41;6.10;81.60
69747;DHT22;57018;50.278;19.134;2024-03-08T09:41:11;6.30;80.30
69747;DHT22;57018;50.278;19.134;2024-03-08T09:43:41;6.90;78.50
69747;DHT22;57018;50.278;19.134;2024-03-08T09:46:11;7.70;75.80
69747;DHT22;57018;50.278;19.134;2024-03-08T09:48:43;8.70;69.50
69747;DHT22;57018;50.278;19.134;2024-03-08T09:51:15;9.10;65.00
69747;DHT22;57018;50.278;19.134;2024-03-08T09:53:45;10.00;62.80
69747;DHT22;57018;50.278;19.134;2024-03-08T09:56:16;11.90;58.50
69747;DHT22;57018;50.278;19.134;2024-03-08T09:58:46;14.10;49.60
69747;DHT22;57018;50.278;19.134;2024-03-08T10:01:43;15.80;43.00
69747;DHT22;57018;50.278;19.134;2024-03-08T10:04:13;16.80;39.90
69747;DHT22;57018;50.278;19.134;2024-03-08T10:06:43;16.40;39.90
69747;DHT22;57018;50.278;19.134;2024-03-08T10:09:18;16.10;39.60
69747;DHT22;57018;50.278;19.134;2024-03-08T10:11:49;15.90;39.60
69747;DHT22;57018;50.278;19.134;2024-03-08T10:14:19;15.30;40.60
69747;DHT22;57018;50.278;19.134;2024-03-08T10:16:50;14.40;41.70
69747;DHT22;57018;50.278;19.134;2024-03-08T10:19:21;13.80;42.50
69747;DHT22;57018;50.278;19.134;2024-03-08T10:21:51;13.10;43.80
69747;DHT22;57018;50.278;19.134;2024-03-08T10:24:23;12.80;44.10
69747;DHT22;57018;50.278;19.134;2024-03-08T10:26:54;13.00;45.00
69747;DHT22;57018;50.278;19.134;2024-03-08T10:29:28;12.50;46.40
69747;DHT22;57018;50.278;19.134;2024-03-08T10:31:57;12.00;46.90
69747;DHT22;57018;50.278;19.134;2024-03-08T10:34:27;11.40;48.70
69747;DHT22;57018;50.278;19.134;2024-03-08T10:37:03;11.20;50.00
69747;DHT22;57018;50.278;19.134;2024-03-08T10:39:36;11.50;50.20
69747;DHT22;57018;50.278;19.134;2024-03-08T10:42:10;11.20;49.10
69747;DHT22;57018;50.278;19.134;2024-03-08T10:44:52;10.60;50.10
69747;DHT22;57018;50.278;19.134;2024-03-08T10:47:28;10.20;51.90
69747;DHT22;57018;50.278;19.134;2024-03-08T10:50:07;10.30;51.70
69747;DHT22;57018;50.278;19.134;2024-03-08T10:52:41;10.00;51.70
69747;DHT22;57018;50.278;19.134;2024-03-08T10:55:11;10.20;51.70
69747;DHT22;57018;50.278;19.134;2024-03-08T10:57:42;9.60;53.40
69747;DHT22;57018;50.278;19.134;2024-03-08T11:00:14;9.70;53.10
69747;DHT22;57018;50.278;19.134;2024-03-08T11:02:46;9.80;53.00
69747;DHT22;57018;50.278;19.134;2024-03-08T11:05:21;9.60;53.90
69747;DHT22;57018;50.278;19.134;2024-03-08T11:08:01;9.80;54.10
69747;DHT22;57018;50.278;19.134;2024-03-08T11:10:32;9.60;54.10
69747;DHT22;57018;50.278;19.134;2024-03-08T11:13:03;9.50;54.70
69747;DHT22;57018;50.278;19.134;2024-03-08T11:15:33;9.20;55.90
69747;DHT22;57018;50.278;19.134;2024-03-08T11:18:07;9.20;56.20
69747;DHT22;57018;50.278;19.134;2024-03-08T11:20:38;9.20;56.20
69747;DHT22;57018;50.278;19.134;2024-03-08T11:23:11;9.00;57.50
69747;DHT22;57018;50.278;19.134;2024-03-08T11:25:43;8.80;57.60
69747;DHT22;57018;50.278;19.134;2024-03-08T11:28:16;8.90;58.10
69747;DHT22;57018;50.278;19.134;2024-03-08T11:33:45;8.50;57.60
69747;DHT22;57018;50.278;19.134;2024-03-08T11:36:22;8.60;58.10
69747;DHT22;57018;50.278;19.134;2024-03-08T11:38:53;8.60;59.00
69747;DHT22;57018;50.278;19.134;2024-03-08T11:41:25;8.50;58.80
69747;DHT22;57018;50.278;19.134;2024-03-08T11:44:05;8.50;59.20
69747;DHT22;57018;50.278;19.134;2024-03-08T11:46:35;8.50;59.30
69747;DHT22;57018;50.278;19.134;2024-03-08T11:49:05;8.40;59.80
69747;DHT22;57018;50.278;19.134;2024-03-08T11:51:37;8.40;59.10
69747;DHT22;57018;50.278;19.134;2024-03-08T11:54:10;8.40;59.30
69747;DHT22;57018;50.278;19.134;2024-03-08T11:56:43;8.50;60.40
69747;DHT22;57018;50.278;19.134;2024-03-08T11:59:15;8.30;59.90
69747;DHT22;57018;50.278;19.134;2024-03-08T12:02:01;8.10;60.50
69747;DHT22;57018;50.278;19.134;2024-03-08T12:04:32;7.90;61.30
69747;DHT22;57018;50.278;19.134;2024-03-08T12:07:04;8.10;61.00
69747;DHT22;57018;50.278;19.134;2024-03-08T12:09:38;8.00;60.90
69747;DHT22;57018;50.278;19.134;2024-03-08T12:12:09;8.10;60.70
69747;DHT22;57018;50.278;19.134;2024-03-08T12:14:40;8.00;60.90
69747;DHT22;57018;50.278;19.134;2024-03-08T12:17:17;8.20;60.40
69747;DHT22;57018;50.278;19.134;2024-03-08T12:19:49;8.10;60.30
69747;DHT22;57018;50.278;19.134;2024-03-08T12:22:19;8.10;60.80
69747;DHT22;57018;50.278;19.134;2024-03-08T12:25:05;8.10;61.20
69747;DHT22;57018;50.278;19.134;2024-03-08T12:27:40;8.00;61.30
69747;DHT22;57018;50.278;19.134;2024-03-08T12:30:22;7.90;62.10
69747;DHT22;57018;50.278;19.134;2024-03-08T12:32:57;8.00;62.90
69747;DHT22;57018;50.278;19.134;2024-03-08T12:35:27;8.10;62.20
69747;DHT22;57018;50.278;19.134;2024-03-08T12:38:01;8.00;62.20
69747;DHT22;57018;50.278;19.134;2024-03-08T12:40:32;7.70;63.50
69747;DHT22;57018;50.278;19.134;2024-03-08T12:43:03;7.60;63.90
69747;DHT22;57018;50.278;19.134;2024-03-08T12:45:35;7.60;64.60
69747;DHT22;57018;50.278;19.134;2024-03-08T12:48:13;7.50;65.20
69747;DHT22;57018;50.278;19.134;2024-03-08T12:50:44;7.70;64.60
69747;DHT22;57018;50.278;19.134;2024-03-08T12:53:16;7.60;63.70
69747;DHT22;57018;50.278;19.134;2024-03-08T12:55:46;7.70;63.70
69747;DHT22;57018;50.278;19.134;2024-03-08T12:58:16;7.70;64.10
69747;DHT22;57018;50.278;19.134;2024-03-08T13:00:46;7.70;64.50
69747;DHT22;57018;50.278;19.134;2024-03-08T13:03:16;7.90;64.10
69747;DHT22;57018;50.278;19.134;2024-03-08T13:05:46;8.10;63.30
69747;DHT22;57018;50.278;19.134;2024-03-08T13:08:17;7.90;64.40
69747;DHT22;57018;50.278;19.134;2024-03-08T13:10:50;7.80;64.90
69747;DHT22;57018;50.278;19.134;2024-03-08T13:13:20;7.90;65.20
69747;DHT22;57018;50.278;19.134;2024-03-08T13:15:51;8.10;64.70
69747;DHT22;57018;50.278;19.134;2024-03-08T13:18:21;8.20;63.80
69747;DHT22;57018;50.278;19.134;2024-03-08T13:20:51;8.20;64.40
69747;DHT22;57018;50.278;19.134;2024-03-08T13:23:21;7.90;64.10
69747;DHT22;57018;50.278;19.134;2024-03-08T13:25:51;8.00;64.60
69747;DHT22;57018;50.278;19.134;2024-03-08T13:28:21;8.20;64.40
69747;DHT22;57018;50.278;19.134;2024-03-08T13:30:56;8.10;64.00
69747;DHT22;57018;50.278;19.134;2024-03-08T13:33:26;8.30;64.10
69747;DHT22;57018;50.278;19.134;2024-03-08T13:35:59;8.20;64.00
69747;DHT22;57018;50.278;19.134;2024-03-08T13:38:32;8.30;63.90
69747;DHT22;57018;50.278;19.134;2024-03-08T13:41:02;8.50;63.50
69747;DHT22;57018;50.278;19.134;2024-03-08T13:43:34;8.40;64.00
69747;DHT22;57018;50.278;19.134;2024-03-08T13:46:06;8.20;63.50
69747;DHT22;57018;50.278;19.134;2024-03-08T13:48:36;8.00;63.60
69747;DHT22;57018;50.278;19.134;2024-03-08T13:51:07;8.00;64.50
69747;DHT22;57018;50.278;19.134;2024-03-08T13:53:40;8.00;64.80
69747;DHT22;57018;50.278;19.134;2024-03-08T13:56:10;8.30;64.00
69747;DHT22;57018;50.278;19.134;2024-03-08T13:58:40;8.30;63.90
69747;DHT22;57018;50.278;19.134;2024-03-08T14:01:11;8.10;64.20
69747;DHT22;57018;50.278;19.134;2024-03-08T14:03:41;8.10;64.30
69747;DHT22;57018;50.278;19.134;2024-03-08T14:06:11;8.10;65.20
69747;DHT22;57018;50.278;19.134;2024-03-08T14:08:41;8.10;66.30
69747;DHT22;57018;50.278;19.134;2024-03-08T14:11:11;8.20;65.80
69747;DHT22;57018;50.278;19.134;2024-03-08T14:13:43;8.20;65.40
69747;DHT22;57018;50.278;19.134;2024-03-08T14:16:14;8.10;65.20
69747;DHT22;57018;50.278;19.134;2024-03-08T14:18:44;8.10;64.70
69747;DHT22;57018;50.278;19.134;2024-03-08T14:21:13;8.30;64.80
69747;DHT22;57018;50.278;19.134;2024-03-08T14:23:44;8.30;63.80
69747;DHT22;57018;50.278;19.134;2024-03-08T14:26:13;8.30;64.10
69747;DHT22;57018;50.278;19.134;2024-03-08T14:28:44;8.30;64.50
69747;DHT22;57018;50.278;19.134;2024-03-08T14:31:16;8.20;64.80
69747;DHT22;57018;50.278;19.134;2024-03-08T14:33:47;8.40;65.60
69747;DHT22;57018;50.278;19.134;2024-03-08T14:36:20;8.20;65.60
69747;DHT22;57018;50.278;19.134;2024-03-08T14:38:51;8.20;65.20
69747;DHT22;57018;50.278;19.134;2024-03-08T14:41:21;8.10;64.80
69747;DHT22;57018;50.278;19.134;2024-03-08T14:43:51;8.40;63.80
69747;DHT22;57018;50.278;19.134;2024-03-08T14:46:22;8.10;63.30
69747;DHT22;57018;50.278;19.134;2024-03-08T14:48:52;8.20;64.20
69747;DHT22;57018;50.278;19.134;2024-03-08T14:51:22;8.40;65.00
69747;DHT22;57018;50.278;19.134;2024-03-08T14:53:54;8.30;65.60
69747;DHT22;57018;50.278;19.134;2024-03-08T14:56:24;8.40;65.40
69747;DHT22;57018;50.278;19.134;2024-03-08T14:58:55;8.20;65.60
69747;DHT22;57018;50.278;19.134;2024-03-08T15:01:30;8.20;66.20
69747;DHT22;57018;50.278;19.134;2024-03-08T15:04:01;8.00;66.20
69747;DHT22;57018;50.278;19.134;2024-03-08T15:06:37;8.10;66.60
69747;DHT22;57018;50.278;19.134;2024-03-08T15:09:07;8.20;66.70
69747;DHT22;57018;50.278;19.134;2024-03-08T15:11:40;8.00;66.70
69747;DHT22;57018;50.278;19.134;2024-03-08T15:14:11;7.80;66.90
69747;DHT22;57018;50.278;19.134;2024-03-08T15:16:42;7.70;67.40
69747;DHT22;57018;50.278;19.134;2024-03-08T15:19:12;7.60;68.30
69747;DHT22;57018;50.278;19.134;2024-03-08T15:21:43;7.70;68.70
69747;DHT22;57018;50.278;19.134;2024-03-08T15:24:16;7.60;69.20
69747;DHT22;57018;50.278;19.134;2024-03-08T15:26:50;7.70;69.40
69747;DHT22;57018;50.278;19.134;2024-03-08T15:29:23;7.60;69.70
69747;DHT22;57018;50.278;19.134;2024-03-08T15:31:55;7.60;70.20
69747;DHT22;57018;50.278;19.134;2024-03-08T15:34:25;7.60;70.40
69747;DHT22;57018;50.278;19.134;2024-03-08T15:36:55;7.50;71.50
69747;DHT22;57018;50.278;19.134;2024-03-08T15:39:30;7.70;73.40
69747;DHT22;57018;50.278;19.134;2024-03-08T15:42:02;7.60;75.70
69747;DHT22;57018;50.278;19.134;2024-03-08T15:44:32;7.60;77.10
69747;DHT22;57018;50.278;19.134;2024-03-08T15:47:02;7.50;77.70
69747;DHT22;57018;50.278;19.134;2024-03-08T15:49:32;7.40;79.60
69747;DHT22;57018;50.278;19.134;2024-03-08T15:52:04;7.30;80.30
69747;DHT22;57018;50.278;19.134;2024-03-08T15:54:36;7.30;81.00
69747;DHT22;57018;50.278;19.134;2024-03-08T15:57:11;7.20;81.80